Time;durP1;ratioP1;P1;durP2;ratioP2;P2;SDS_P1;SDS_P2;PMS_P1;PMS_P2;Temp;Humidity;BMP_temperature;BMP_pressure;BME280_temperature;BME280_humidity;BME280_pressure;Samples;Min_cycle;Max_cycle;Signal;HPM_P1;HPM_P2
2021/08/22 00:01:21;;;;;;;8.13;7.40;;;;;;;22.37;61.67;96769.16;5069675;28;20484;-70
2021/08/22 00:03:47;;;;;;;8.50;7.60;;;;;;;22.61;61.16;96784.31;5059523;28;20898;-70
2021/08/22 00:06:13;;;;;;;7.83;7.03;;;;;;;22.43;61.69;96788.78;5052780;28;20184;-71
2021/08/22 00:08:39;;;;;;;9.90;7.73;;;;;;;22.66;61.18;96790.53;5071530;28;20245;-71
2021/08/22 00:11:05;;;;;;;10.90;7.10;;;;;;;22.86;60.27;96787.41;5071204;28;20182;-71
2021/08/22 00:13:31;;;;;;;8.13;6.93;;;;;;;22.99;60.22;96782.81;5071117;28;20495;-71
2021/08/22 00:15:56;;;;;;;9.27;8.10;;;;;;;22.84;61.04;96778.03;5071095;28;20194;-70
2021/08/22 00:18:22;;;;;;;11.30;8.57;;;;;;;22.34;63.31;96832.91;5068207;28;20444;-71
2021/08/22 00:20:47;;;;;;;8.10;7.30;;;;;;;21.92;65.68;96848.09;5066039;28;20210;-70
2021/08/22 00:23:13;;;;;;;11.87;7.83;;;;;;;21.48;68.45;96885.72;5069377;28;20233;-72
2021/08/22 00:25:39;;;;;;;8.10;6.77;;;;;;;20.84;71.32;96894.25;5069224;28;20182;-73
2021/08/22 00:28:04;;;;;;;10.03;6.70;;;;;;;20.30;73.95;96906.56;5062359;28;20290;-71
2021/08/22 00:30:30;;;;;;;7.40;5.47;;;;;;;19.74;75.73;96928.56;5073395;28;20188;-72
2021/08/22 00:32:55;;;;;;;7.10;4.50;;;;;;;19.66;74.99;96923.50;5056764;28;20181;-73
2021/08/22 00:35:21;;;;;;;8.97;3.83;;;;;;;19.19;76.55;96903.41;5067651;28;20257;-72
2021/08/22 00:37:47;;;;;;;7.17;3.73;;;;;;;18.67;78.61;96911.44;5060099;28;20214;-70
2021/08/22 00:40:12;;;;;;;8.67;3.77;;;;;;;18.43;79.99;96899.69;5071208;28;20179;-71
2021/08/22 00:42:38;;;;;;;12.53;3.40;;;;;;;18.34;80.40;96888.50;5071657;28;20213;-70
2021/08/22 00:45:09;;;;;;;4.90;3.60;;;;;;;18.46;80.43;96851.53;5070717;28;20252;-71
2021/08/22 00:47:42;;;;;;;7.73;3.70;;;;;;;18.45;80.28;96849.09;5054851;28;20440;-70
2021/08/22 00:50:12;;;;;;;3.87;3.47;;;;;;;18.65;79.74;96844.50;5071343;28;20866;-71
2021/08/22 00:52:37;;;;;;;4.00;3.10;;;;;;;18.84;78.49;96832.13;5071247;28;20426;-70
2021/08/22 00:55:07;;;;;;;4.77;2.90;;;;;;;18.80;78.30;96820.31;5051614;28;20429;-71
2021/08/22 00:57:36;;;;;;;8.13;3.27;;;;;;;19.12;76.83;96811.53;5054480;28;20229;-70
2021/08/22 01:00:09;;;;;;;4.27;3.87;;;;;;;19.25;75.36;96800.81;5054561;28;20782;-70
2021/08/22 01:02:36;;;;;;;3.70;3.30;;;;;;;19.52;74.28;96789.13;5069965;28;20503;-70
2021/08/22 01:05:33;;;;;;;6.47;4.07;;;;;;;19.43;73.97;96800.03;5050884;28;20424;-70
2021/08/22 01:08:04;;;;;;;5.10;3.77;;;;;;;19.59;73.43;96789.88;5065640;28;20924;-70
2021/08/22 01:10:32;;;;;;;6.10;3.40;;;;;;;19.78;73.08;96796.81;5070558;28;20594;-71
2021/08/22 01:13:05;;;;;;;5.13;3.60;;;;;;;19.84;72.77;96794.31;5070559;28;20916;-70
2021/08/22 01:15:36;;;;;;;4.97;3.50;;;;;;;19.88;71.85;96784.91;5069046;28;20757;-71
2021/08/22 01:18:02;;;;;;;4.80;3.77;;;;;;;19.65;72.73;96784.47;5069715;28;20451;-71
2021/08/22 01:20:34;;;;;;;4.97;4.07;;;;;;;19.56;73.11;96771.69;5045199;28;20448;-71
2021/08/22 01:23:01;;;;;;;5.87;4.50;;;;;;;19.71;72.43;96761.53;5070884;28;20464;-70
2021/08/22 01:25:28;;;;;;;5.20;4.10;;;;;;;19.78;71.56;96748.94;5069811;28;20443;-71
2021/08/22 01:27:54;;;;;;;7.07;4.40;;;;;;;19.82;72.45;96753.84;5070893;28;20451;-70
2021/08/22 01:30:20;;;;;;;5.03;4.03;;;;;;;19.94;71.79;96754.75;5069343;28;20429;-70
2021/08/22 01:32:48;;;;;;;11.10;6.63;;;;;;;19.96;72.16;96752.69;5069629;28;20417;-70
2021/08/22 01:35:17;;;;;;;5.00;4.43;;;;;;;20.07;71.86;96762.56;5069658;28;20544;-70
2021/08/22 01:37:44;;;;;;;5.80;4.43;;;;;;;20.14;71.60;96774.97;5059291;28;20461;-70
2021/08/22 01:40:10;;;;;;;6.83;4.40;;;;;;;20.25;71.20;96776.88;5071498;28;21014;-71
2021/08/22 01:42:38;;;;;;;7.53;4.40;;;;;;;20.24;71.54;96770.72;5071845;28;20456;-69
2021/08/22 01:45:04;;;;;;;4.70;3.87;;;;;;;20.34;71.14;96759.56;5057052;28;20790;-71
2021/08/22 01:47:30;;;;;;;6.30;4.27;;;;;;;20.30;70.62;96754.91;5072572;28;20447;-71
2021/08/22 01:49:56;;;;;;;5.93;4.70;;;;;;;20.32;70.60;96753.63;5082658;28;20618;-71
2021/08/22 01:52:23;;;;;;;6.23;4.37;;;;;;;20.30;70.60;96753.06;5086701;28;20447;-71
2021/08/22 01:54:49;;;;;;;5.93;4.10;;;;;;;20.33;70.68;96752.59;5080076;28;20189;-71
2021/08/22 01:57:15;;;;;;;4.50;3.50;;;;;;;20.40;70.26;96753.34;5072037;28;20433;-71
2021/08/22 01:59:40;;;;;;;4.90;4.30;;;;;;;20.43;70.53;96752.06;5090159;28;20179;-71
2021/08/22 02:02:06;;;;;;;6.17;4.33;;;;;;;20.44;70.45;96758.19;5084239;28;20217;-71
2021/08/22 02:04:36;;;;;;;5.30;3.90;;;;;;;20.26;70.76;96759.88;5089715;28;20197;-71
2021/08/22 02:07:23;;;;;;;5.50;4.10;;;;;;;20.04;71.76;96760.34;5062534;28;20240;-70
2021/08/22 02:10:10;;;;;;;5.30;4.20;;;;;;;20.15;71.85;96752.66;5059113;28;21146;-71
2021/08/22 02:12:38;;;;;;;5.40;3.93;;;;;;;20.15;71.31;96761.44;5066057;28;20833;-72
2021/08/22 02:15:16;;;;;;;4.40;3.50;;;;;;;20.19;71.36;96756.47;5065658;28;20437;-71
2021/08/22 02:18:03;;;;;;;4.83;3.77;;;;;;;20.18;71.57;96757.50;5072576;28;20473;-71
2021/08/22 02:20:29;;;;;;;4.97;3.63;;;;;;;20.22;71.24;96753.38;5055928;28;20423;-71
2021/08/22 02:22:55;;;;;;;4.10;3.40;;;;;;;20.20;71.19;96742.13;5073587;28;20456;-71
2021/08/22 02:25:21;;;;;;;6.20;3.40;;;;;;;20.16;71.91;96746.31;5072078;28;20501;-71
2021/08/22 02:27:47;;;;;;;4.10;3.70;;;;;;;20.24;71.33;96745.97;5073309;28;20456;-71
2021/08/22 02:30:13;;;;;;;4.83;3.60;;;;;;;20.10;71.85;96738.19;5073416;28;20645;-71
2021/08/22 02:32:39;;;;;;;6.03;4.07;;;;;;;20.15;71.68;96736.69;5073621;28;20257;-70
2021/08/22 02:35:05;;;;;;;4.20;3.70;;;;;;;20.18;71.46;96715.78;5072824;28;20421;-70
2021/08/22 02:37:32;;;;;;;4.67;3.90;;;;;;;20.23;71.34;96723.06;5058227;28;20452;-71
2021/08/22 02:39:57;;;;;;;7.47;3.90;;;;;;;20.26;71.17;96726.09;5072670;28;20431;-71
2021/08/22 02:42:23;;;;;;;8.17;3.97;;;;;;;20.31;71.41;96732.59;5073007;28;20469;-71
2021/08/22 02:44:49;;;;;;;4.27;3.87;;;;;;;20.30;71.42;96734.41;5071995;28;20186;-70
2021/08/22 02:47:15;;;;;;;4.53;4.10;;;;;;;20.17;71.91;96721.31;5070338;28;20935;-71
2021/08/22 02:49:41;;;;;;;3.90;3.47;;;;;;;20.23;71.77;96723.88;5060460;28;20190;-71
2021/08/22 02:52:07;;;;;;;5.87;3.60;;;;;;;20.19;71.67;96728.03;5073034;28;20179;-70
2021/08/22 02:54:32;;;;;;;4.70;3.70;;;;;;;20.12;72.05;96726.50;5072231;28;20432;-71
2021/08/22 02:56:58;;;;;;;4.50;3.27;;;;;;;19.96;72.48;96731.41;5072200;28;20205;-70
2021/08/22 02:59:23;;;;;;;6.40;3.63;;;;;;;19.89;72.76;96728.03;5073119;28;20197;-71
2021/08/22 03:01:49;;;;;;;6.67;3.57;;;;;;;19.88;72.87;96732.50;5073978;28;20721;-70
2021/08/22 03:04:15;;;;;;;5.27;3.70;;;;;;;19.97;72.54;96737.53;5071651;28;20642;-71
2021/08/22 03:06:40;;;;;;;5.50;3.87;;;;;;;19.94;72.49;96738.78;5058960;28;20179;-71
2021/08/22 03:09:06;;;;;;;6.20;3.73;;;;;;;19.96;72.54;96739.38;5073061;28;20190;-71
2021/08/22 03:11:32;;;;;;;5.47;3.80;;;;;;;20.04;72.45;96731.09;5073626;28;20179;-71
2021/08/22 03:13:58;;;;;;;6.27;4.07;;;;;;;20.06;72.23;96729.00;5062327;28;20202;-71
2021/08/22 03:16:24;;;;;;;5.13;3.77;;;;;;;20.09;72.11;96736.56;5055070;28;20436;-70
2021/08/22 03:18:49;;;;;;;4.10;3.70;;;;;;;20.12;72.13;96729.16;5064797;28;20437;-70
2021/08/22 03:21:15;;;;;;;4.03;3.67;;;;;;;20.06;72.36;96729.00;5069817;28;20190;-71
2021/08/22 03:23:41;;;;;;;5.23;3.60;;;;;;;20.09;72.10;96728.56;5044877;28;20193;-69
2021/08/22 03:26:06;;;;;;;3.63;3.33;;;;;;;20.03;72.15;96728.66;5051930;28;20596;-71
2021/08/22 03:28:32;;;;;;;4.10;3.37;;;;;;;20.13;71.92;96731.59;5051162;28;20203;-70
2021/08/22 03:30:58;;;;;;;4.37;3.40;;;;;;;20.01;72.17;96734.22;5052168;28;20179;-70
2021/08/22 03:33:23;;;;;;;3.77;3.47;;;;;;;20.05;71.96;96739.88;5050982;28;20626;-71
2021/08/22 03:35:49;;;;;;;6.50;3.90;;;;;;;20.04;72.05;96730.28;5051317;28;20179;-70
2021/08/22 03:38:14;;;;;;;4.00;3.40;;;;;;;19.93;72.14;96734.50;5067504;28;20214;-71
2021/08/22 03:40:40;;;;;;;4.03;3.40;;;;;;;19.85;72.31;96734.78;5051770;28;20221;-70
2021/08/22 03:43:06;;;;;;;3.70;3.40;;;;;;;19.90;72.38;96727.00;5051826;28;20210;-71
2021/08/22 03:45:31;;;;;;;5.17;3.73;;;;;;;19.78;72.83;96733.00;5051543;28;20684;-71
2021/08/22 03:47:57;;;;;;;4.00;3.60;;;;;;;19.88;72.99;96729.84;5051941;28;20210;-70
2021/08/22 03:50:22;;;;;;;5.53;3.50;;;;;;;19.95;72.31;96724.47;5051343;28;20190;-71
2021/08/22 03:52:51;;;;;;;4.40;4.00;;;;;;;20.03;72.04;96736.63;5052718;28;20640;-70
2021/08/22 03:55:17;;;;;;;4.00;3.70;;;;;;;20.02;72.19;96748.31;5050722;28;20595;-70
2021/08/22 03:57:42;;;;;;;4.60;3.57;;;;;;;20.01;72.03;96742.19;5050601;28;20494;-70
2021/08/22 04:00:08;;;;;;;4.50;3.47;;;;;;;19.91;72.56;96744.56;5051199;28;20277;-71
2021/08/22 04:02:34;;;;;;;5.57;3.77;;;;;;;19.79;73.20;96741.81;5051554;28;20264;-70
2021/08/22 04:05:01;;;;;;;6.60;3.50;;;;;;;19.72;73.37;96741.88;5050673;28;20936;-70
2021/08/22 04:07:28;;;;;;;3.93;3.53;;;;;;;19.72;73.94;96739.22;5050819;28;20261;-70
2021/08/22 04:09:54;;;;;;;5.83;4.10;;;;;;;19.84;73.27;96736.66;5052313;28;20449;-71
2021/08/22 04:12:20;;;;;;;4.63;3.67;;;;;;;19.94;72.54;96736.13;5051262;28;20433;-70
2021/08/22 04:14:45;;;;;;;5.73;3.50;;;;;;;19.65;74.15;96747.28;5049677;28;20479;-70
2021/08/22 04:17:11;;;;;;;4.40;3.63;;;;;;;19.95;72.92;96740.41;5050961;28;20244;-71
2021/08/22 04:19:37;;;;;;;3.97;3.57;;;;;;;20.04;72.35;96749.69;5043007;28;20598;-71
2021/08/22 04:22:03;;;;;;;5.37;3.80;;;;;;;20.15;72.20;96744.69;5049742;28;20261;-70
2021/08/22 04:24:29;;;;;;;6.57;3.10;;;;;;;20.22;71.97;96745.41;5050373;28;20179;-71
2021/08/22 04:26:54;;;;;;;13.00;3.40;;;;;;;20.26;71.78;96751.91;5049588;28;20210;-71
2021/08/22 04:29:20;;;;;;;3.73;3.40;;;;;;;20.30;71.54;96755.72;5050220;28;20498;-70
2021/08/22 04:31:46;;;;;;;3.50;3.20;;;;;;;20.34;71.45;96758.75;5050876;28;20652;-70
2021/08/22 04:34:11;;;;;;;3.60;3.30;;;;;;;20.31;71.57;96764.53;5049045;28;20233;-71
2021/08/22 04:36:37;;;;;;;3.53;3.23;;;;;;;20.29;71.90;96778.03;5050808;28;20549;-71
2021/08/22 04:39:02;;;;;;;5.83;4.20;;;;;;;20.37;72.10;96771.59;5049095;28;20680;-69
2021/08/22 04:41:28;;;;;;;6.40;5.80;;;;;;;20.42;72.01;96767.22;5059001;28;20203;-70
2021/08/22 04:43:54;;;;;;;5.73;4.70;;;;;;;20.53;71.47;96765.63;5049768;28;20638;-70
2021/08/22 04:46:20;;;;;;;8.00;7.30;;;;;;;20.50;71.76;96770.59;5050260;28;20179;-71
2021/08/22 04:48:46;;;;;;;6.40;4.47;;;;;;;20.20;73.46;96774.06;5050671;28;20627;-70
2021/08/22 04:51:12;;;;;;;7.17;4.43;;;;;;;20.20;73.46;96772.22;5058927;28;20424;-70
2021/08/22 04:53:37;;;;;;;7.23;4.07;;;;;;;20.31;73.46;96781.28;5049430;28;20194;-71
2021/08/22 04:56:03;;;;;;;4.90;4.00;;;;;;;20.47;72.64;96784.34;5050611;28;20558;-70
2021/08/22 04:58:29;;;;;;;4.70;4.23;;;;;;;20.45;72.71;96781.94;5041057;28;20677;-70
2021/08/22 05:00:55;;;;;;;5.33;4.40;;;;;;;20.57;72.06;96779.28;5050297;28;20182;-70
2021/08/22 05:03:21;;;;;;;4.80;4.20;;;;;;;20.53;72.26;96778.16;5051958;28;20575;-70
2021/08/22 05:05:46;;;;;;;4.20;3.90;;;;;;;20.64;71.80;96780.03;5061387;28;20420;-70
2021/08/22 05:08:12;;;;;;;4.87;4.20;;;;;;;20.70;71.74;96784.44;5060573;28;20281;-70
2021/08/22 05:10:37;;;;;;;4.67;4.27;;;;;;;20.70;71.50;96789.75;5049221;28;20206;-70
2021/08/22 05:13:03;;;;;;;4.20;3.37;;;;;;;20.72;71.87;96792.19;5057966;28;20179;-69
2021/08/22 05:15:29;;;;;;;7.57;4.07;;;;;;;20.75;71.60;96791.75;5041383;28;20233;-71
2021/08/22 05:17:54;;;;;;;6.10;3.80;;;;;;;20.77;71.06;96794.22;5050139;28;20289;-70
2021/08/22 05:20:20;;;;;;;4.10;3.70;;;;;;;20.78;71.07;96795.84;5041046;28;20187;-70
2021/08/22 05:22:46;;;;;;;5.23;4.10;;;;;;;20.46;71.60;96801.34;5046181;28;21638;-70
2021/08/22 05:25:12;;;;;;;5.30;4.47;;;;;;;20.64;71.61;96803.97;5047215;28;20433;-70
2021/08/22 05:27:37;;;;;;;6.40;4.47;;;;;;;20.61;71.75;96800.94;5050340;28;20199;-71
2021/08/22 05:30:03;;;;;;;7.67;4.97;;;;;;;20.63;71.28;96799.69;5049146;28;20235;-70
2021/08/22 05:32:29;;;;;;;6.73;4.60;;;;;;;20.46;71.81;96798.69;5040451;28;20262;-71
2021/08/22 05:34:55;;;;;;;4.70;4.10;;;;;;;20.21;73.20;96796.97;5063462;28;20780;-71
2021/08/22 05:37:20;;;;;;;8.23;4.97;;;;;;;20.41;72.31;96802.84;5069963;28;20237;-70
2021/08/22 05:39:48;;;;;;;5.20;4.40;;;;;;;20.60;71.68;96807.34;5069973;28;20178;-70
2021/08/22 05:42:13;;;;;;;5.13;4.43;;;;;;;20.58;71.70;96812.88;5069506;28;20210;-71
2021/08/22 05:44:39;;;;;;;5.63;4.40;;;;;;;20.53;72.42;96813.53;5068543;28;20470;-70
2021/08/22 05:47:04;;;;;;;5.53;4.80;;;;;;;20.69;71.75;96814.75;5070048;28;20202;-70
2021/08/22 05:49:30;;;;;;;14.47;4.10;;;;;;;20.67;71.63;96811.50;5070360;28;20638;-70
2021/08/22 05:51:56;;;;;;;6.53;4.30;;;;;;;20.97;70.60;96805.38;5063695;28;20528;-70
2021/08/22 05:54:21;;;;;;;6.03;4.73;;;;;;;21.12;70.71;96807.56;5072309;28;20198;-71
2021/08/22 05:56:47;;;;;;;6.23;4.80;;;;;;;21.15;70.68;96811.66;5074080;28;20655;-71
2021/08/22 05:59:12;;;;;;;6.20;5.20;;;;;;;21.05;70.64;96796.22;5073061;28;20187;-70
2021/08/22 06:01:38;;;;;;;7.97;4.70;;;;;;;21.41;69.70;96793.59;5074064;28;20297;-70
2021/08/22 06:04:04;;;;;;;5.07;4.07;;;;;;;21.58;69.50;96789.16;5063981;28;20178;-70
2021/08/22 06:06:29;;;;;;;7.37;4.77;;;;;;;21.54;69.04;96804.03;5073922;28;20210;-69
2021/08/22 06:08:55;;;;;;;6.40;4.57;;;;;;;21.70;68.57;96804.38;5069577;28;20189;-69
2021/08/22 06:11:21;;;;;;;5.17;4.40;;;;;;;21.80;68.45;96799.25;5073966;28;20186;-71
2021/08/22 06:13:46;;;;;;;6.70;4.53;;;;;;;21.85;67.92;96796.72;5072781;28;20308;-70
2021/08/22 06:16:12;;;;;;;6.87;4.23;;;;;;;21.82;67.97;96799.84;5073094;28;20178;-70
2021/08/22 06:18:37;;;;;;;12.33;5.83;;;;;;;22.04;67.63;96797.38;5068393;28;20651;-71
2021/08/22 06:21:03;;;;;;;29.63;13.00;;;;;;;22.20;67.42;96790.47;5069684;28;20185;-70
2021/08/22 06:23:28;;;;;;;5.30;4.70;;;;;;;22.35;66.86;96792.66;5052804;28;20214;-70
2021/08/22 06:25:54;;;;;;;9.90;5.20;;;;;;;22.47;66.43;96794.47;5068875;28;20179;-70
2021/08/22 06:28:20;;;;;;;5.57;4.53;;;;;;;22.22;66.48;96788.38;5073170;28;20206;-70
2021/08/22 06:30:45;;;;;;;5.60;4.83;;;;;;;22.37;66.44;96779.84;5073549;28;20583;-70
2021/08/22 06:33:11;;;;;;;6.33;4.47;;;;;;;22.42;66.48;96781.84;5063172;28;20510;-69
2021/08/22 06:35:37;;;;;;;5.10;4.67;;;;;;;22.44;66.49;96782.41;5072662;28;20558;-71
2021/08/22 06:38:03;;;;;;;6.23;4.43;;;;;;;22.14;66.67;96785.28;5072016;28;20243;-70
2021/08/22 06:40:28;;;;;;;5.67;4.43;;;;;;;22.17;66.60;96801.63;5056420;28;20182;-70
2021/08/22 06:42:54;;;;;;;6.37;5.20;;;;;;;21.44;69.96;96798.44;5073029;28;20202;-70
2021/08/22 06:45:20;;;;;;;5.60;5.07;;;;;;;21.44;69.42;96795.78;5070243;28;20186;-71
2021/08/22 06:47:46;;;;;;;5.60;5.00;;;;;;;21.25;70.35;96790.56;5067106;28;20673;-71
2021/08/22 06:50:12;;;;;;;8.30;5.00;;;;;;;21.60;68.93;96781.78;5071553;28;20658;-70
2021/08/22 06:52:38;;;;;;;7.57;4.90;;;;;;;21.78;67.27;96782.72;5073028;28;20428;-70
2021/08/22 06:55:04;;;;;;;5.40;4.90;;;;;;;21.48;69.04;96789.75;5063075;28;20751;-71
2021/08/22 06:57:30;;;;;;;17.03;4.70;;;;;;;21.46;68.90;96785.72;5072461;28;20285;-71
2021/08/22 06:59:55;;;;;;;6.00;4.80;;;;;;;21.00;70.07;96788.09;5072788;28;20511;-70
2021/08/22 07:02:21;;;;;;;5.47;4.97;;;;;;;21.47;68.78;96792.66;5071592;28;20217;-70
2021/08/22 07:04:47;;;;;;;4.80;4.40;;;;;;;21.86;66.86;96789.53;5062640;28;20183;-70
2021/08/22 07:07:12;;;;;;;5.60;4.70;;;;;;;21.65;67.29;96789.09;5072450;28;20677;-71
2021/08/22 07:09:38;;;;;;;6.77;4.60;;;;;;;21.42;68.33;96800.56;5063737;28;20239;-71
2021/08/22 07:12:04;;;;;;;5.10;4.53;;;;;;;20.93;69.79;96790.88;5072401;28;20189;-69
2021/08/22 07:14:30;;;;;;;5.80;5.30;;;;;;;21.55;67.68;96778.97;5070920;28;20174;-70
2021/08/22 07:16:55;;;;;;;5.20;4.70;;;;;;;21.35;68.71;96783.84;5072339;28;20794;-68
2021/08/22 07:19:21;;;;;;;6.33;5.27;;;;;;;20.96;70.34;96787.75;5062661;28;20229;-70
2021/08/22 07:21:46;;;;;;;5.90;5.03;;;;;;;21.30;69.33;96793.34;5072220;28;20275;-70
2021/08/22 07:24:12;;;;;;;4.97;4.50;;;;;;;21.14;70.18;96789.50;5071547;28;20307;-70
2021/08/22 07:26:38;;;;;;;6.87;5.10;;;;;;;21.25;70.11;96790.56;5071141;28;20558;-71
2021/08/22 07:29:03;;;;;;;5.83;5.10;;;;;;;21.49;68.60;96787.91;5070844;28;20214;-69
2021/08/22 07:31:30;;;;;;;7.47;5.43;;;;;;;21.81;67.38;96789.41;5070887;28;20190;-71
2021/08/22 07:33:55;;;;;;;5.20;4.70;;;;;;;21.69;67.80;96789.41;5061964;28;20278;-70
2021/08/22 07:36:21;;;;;;;9.13;4.73;;;;;;;21.58;67.81;96786.50;5071487;28;20821;-71
2021/08/22 07:38:46;;;;;;;5.43;4.93;;;;;;;21.87;67.20;96791.13;5072334;28;20213;-70
2021/08/22 07:41:12;;;;;;;5.10;4.43;;;;;;;21.79;66.74;96789.66;5072069;28;20261;-71
2021/08/22 07:43:38;;;;;;;6.57;4.37;;;;;;;21.53;68.38;96789.06;5066402;28;20230;-71
2021/08/22 07:46:03;;;;;;;5.30;4.80;;;;;;;21.99;66.98;96789.25;5067577;28;20189;-70
2021/08/22 07:48:29;;;;;;;5.90;5.10;;;;;;;21.80;67.37;96796.59;5071868;28;20217;-72
2021/08/22 07:50:55;;;;;;;6.50;4.83;;;;;;;21.75;67.21;96801.84;5063500;28;20186;-71
2021/08/22 07:53:20;;;;;;;11.50;5.10;;;;;;;21.97;66.88;96795.88;5071149;28;20699;-71
2021/08/22 07:55:46;;;;;;;4.60;4.20;;;;;;;22.03;66.40;96802.94;5063166;28;20194;-70
2021/08/22 07:58:11;;;;;;;5.17;4.40;;;;;;;22.63;64.28;96801.69;5071526;28;20281;-71
2021/08/22 08:00:37;;;;;;;5.60;5.10;;;;;;;22.54;64.22;96801.31;5071556;28;20182;-71
2021/08/22 08:03:03;;;;;;;6.07;4.33;;;;;;;22.44;65.27;96795.75;5062840;28;20204;-70
2021/08/22 08:05:28;;;;;;;5.77;4.80;;;;;;;23.14;62.85;96798.28;5052299;28;20183;-70
2021/08/22 08:07:54;;;;;;;6.27;4.63;;;;;;;22.98;62.82;96807.91;5071173;28;20670;-70
2021/08/22 08:10:19;;;;;;;6.13;5.00;;;;;;;23.35;61.77;96809.34;5071263;28;20247;-71
2021/08/22 08:12:45;;;;;;;4.63;4.23;;;;;;;23.70;60.82;96808.22;5070668;28;20193;-69
2021/08/22 08:15:11;;;;;;;5.63;4.53;;;;;;;23.77;60.56;96811.53;5056477;28;20211;-71
2021/08/22 08:17:38;;;;;;;4.90;4.40;;;;;;;23.83;60.10;96812.41;5071431;28;20730;-71
2021/08/22 08:20:04;;;;;;;4.67;4.20;;;;;;;24.12;59.52;96817.63;5061099;28;20974;-69
2021/08/22 08:22:30;;;;;;;5.03;4.53;;;;;;;23.53;60.55;96818.94;5069923;28;20464;-71
2021/08/22 08:24:56;;;;;;;5.00;4.50;;;;;;;23.82;59.54;96808.91;5069591;28;20435;-70
2021/08/22 08:27:22;;;;;;;4.90;4.40;;;;;;;23.46;60.48;96816.44;5070959;28;20210;-71
2021/08/22 08:29:49;;;;;;;7.17;4.53;;;;;;;22.76;62.31;96807.78;5071110;28;20633;-71
2021/08/22 08:32:15;;;;;;;7.67;4.70;;;;;;;23.17;61.49;96803.97;5061800;28;20413;-71
2021/08/22 08:34:40;;;;;;;4.90;4.20;;;;;;;23.42;61.31;96805.44;5061261;28;20802;-71
2021/08/22 08:37:06;;;;;;;6.67;4.57;;;;;;;23.47;61.02;96813.53;5070167;28;20304;-69
2021/08/22 08:39:32;;;;;;;5.33;4.83;;;;;;;23.88;59.48;96815.16;5054942;28;20190;-70
2021/08/22 08:42:30;;;;;;;6.37;4.97;;;;;;;23.42;60.01;96816.13;5070957;28;20202;-70
2021/08/22 08:44:56;;;;;;;6.17;4.77;;;;;;;23.38;61.13;96820.34;5060481;28;20212;-70
2021/08/22 08:47:26;;;;;;;5.57;5.00;;;;;;;23.64;59.65;96823.38;5070692;28;20451;-71
2021/08/22 08:50:00;;;;;;;5.90;3.63;;;;;;;23.77;59.31;96825.72;5071109;28;20791;-70
2021/08/22 08:52:38;;;;;;;5.60;4.63;;;;;;;23.17;60.75;96832.53;5069788;28;20507;-70
2021/08/22 08:55:22;;;;;;;6.20;4.17;;;;;;;23.10;61.56;96837.25;5068713;28;20431;-70
2021/08/22 08:57:48;;;;;;;7.47;5.27;;;;;;;23.87;59.13;96837.59;5070824;28;20433;-70
2021/08/22 09:00:35;;;;;;;4.60;4.20;;;;;;;23.41;60.32;96838.56;5070606;28;20424;-71
2021/08/22 09:03:02;;;;;;;5.80;5.20;;;;;;;23.78;58.51;96835.38;5061695;28;20211;-70
2021/08/22 09:05:42;;;;;;;6.23;4.80;;;;;;;23.99;58.78;96840.22;5070158;28;20781;-70
2021/08/22 09:08:20;;;;;;;5.80;4.37;;;;;;;24.36;57.67;96835.03;5071853;28;20429;-69
2021/08/22 09:11:04;;;;;;;5.80;5.20;;;;;;;24.51;57.73;96841.63;5073820;28;20463;-70
2021/08/22 09:14:08;;;;;;;7.40;4.70;;;;;;;24.20;58.32;96841.25;5053703;28;20722;-70
2021/08/22 09:17:08;;;;;;;8.67;4.70;;;;;;;23.74;59.74;96838.78;5049698;28;20410;-70
2021/08/22 09:20:11;;;;;;;7.10;4.50;;;;;;;24.19;58.28;96839.66;5049431;28;21076;-71
2021/08/22 09:23:14;;;;;;;4.90;4.40;;;;;;;24.62;56.86;96827.28;5059094;28;20492;-71
2021/08/22 09:26:05;;;;;;;5.13;4.60;;;;;;;24.72;56.70;96823.13;5068140;28;20428;-71
2021/08/22 09:28:43;;;;;;;5.93;4.63;;;;;;;24.59;56.41;96830.47;5065889;28;20429;-70
2021/08/22 09:31:30;;;;;;;5.50;4.30;;;;;;;24.53;57.29;96831.47;5078503;28;20420;-70
2021/08/22 09:34:33;;;;;;;9.33;5.00;;;;;;;24.00;58.70;96831.94;5074653;28;20416;-69
2021/08/22 09:37:09;;;;;;;7.70;5.03;;;;;;;24.16;58.30;96826.78;5062390;28;20436;-70
2021/08/22 09:40:12;;;;;;;6.90;4.70;;;;;;;24.47;57.78;96829.78;5048221;28;20417;-70
2021/08/22 09:42:47;;;;;;;5.97;4.30;;;;;;;24.61;56.84;96835.59;5053340;28;20488;-70
2021/08/22 09:45:33;;;;;;;5.53;4.63;;;;;;;24.70;56.58;96828.72;5074813;28;20419;-70
2021/08/22 09:48:37;;;;;;;5.37;4.20;;;;;;;25.09;56.15;96827.75;5075209;28;20520;-69
2021/08/22 09:51:26;;;;;;;6.83;5.70;;;;;;;25.45;54.51;96820.03;5071208;28;20496;-70
2021/08/22 09:54:26;;;;;;;4.63;4.20;;;;;;;25.60;53.88;96824.69;5068873;28;20793;-70
2021/08/22 09:57:29;;;;;;;7.80;4.90;;;;;;;24.90;55.63;96820.09;5065061;28;20434;-70
2021/08/22 10:00:13;;;;;;;6.00;4.60;;;;;;;25.45;53.81;96828.88;5065657;28;20446;-70
2021/08/22 10:03:03;;;;;;;9.17;4.67;;;;;;;25.43;53.74;96835.56;5059246;28;20483;-70
2021/08/22 10:05:57;;;;;;;4.70;4.23;;;;;;;25.27;53.94;96834.59;5057522;28;20417;-70
2021/08/22 10:08:31;;;;;;;5.60;4.90;;;;;;;24.68;56.16;96831.66;5059958;28;20488;-70
2021/08/22 10:10:58;;;;;;;5.80;5.30;;;;;;;24.56;55.62;96830.16;5073031;28;20448;-69
2021/08/22 10:13:24;;;;;;;7.53;5.50;;;;;;;24.24;56.39;96826.31;5072479;28;20446;-70
2021/08/22 10:15:51;;;;;;;5.80;5.20;;;;;;;24.49;56.22;96827.69;5056120;28;20931;-69
2021/08/22 10:18:21;;;;;;;5.50;5.00;;;;;;;24.79;55.50;96831.78;5072278;28;20258;-69
2021/08/22 10:20:47;;;;;;;6.13;4.40;;;;;;;25.02;54.78;96835.19;5067228;28;20501;-70
2021/08/22 10:23:31;;;;;;;5.97;5.37;;;;;;;23.58;59.36;96829.72;5072075;28;20506;-69
2021/08/22 10:25:57;;;;;;;10.70;5.47;;;;;;;23.88;58.98;96833.88;5067751;28;20676;-70
2021/08/22 10:28:53;;;;;;;5.77;5.27;;;;;;;23.45;61.09;96831.66;5072218;28;20448;-70
2021/08/22 10:32:03;;;;;;;8.10;5.50;;;;;;;24.16;59.93;96824.09;5063750;28;20198;-69
2021/08/22 10:34:30;;;;;;;6.17;5.40;;;;;;;24.43;59.50;96823.34;5063170;28;20423;-70
2021/08/22 10:36:56;;;;;;;6.30;5.10;;;;;;;24.26;60.62;96826.09;5073284;28;20502;-70
2021/08/22 10:39:22;;;;;;;6.30;5.50;;;;;;;23.49;62.16;96812.47;5072065;28;20774;-70
2021/08/22 10:41:55;;;;;;;7.93;6.10;;;;;;;23.32;63.37;96810.59;5073001;28;20483;-70
2021/08/22 10:44:33;;;;;;;5.80;5.03;;;;;;;23.89;61.19;96814.88;5071949;28;20472;-70
2021/08/22 10:47:09;;;;;;;6.33;5.73;;;;;;;23.85;60.65;96815.63;5072738;28;20507;-69
2021/08/22 10:49:50;;;;;;;7.40;5.30;;;;;;;23.31;62.90;96825.06;5056575;28;20428;-70
2021/08/22 10:52:31;;;;;;;6.53;5.87;;;;;;;22.89;63.08;96820.06;5064459;28;20740;-69
2021/08/22 10:55:12;;;;;;;7.13;6.00;;;;;;;23.65;62.41;96808.97;5072151;28;20433;-70
2021/08/22 10:57:49;;;;;;;6.33;5.30;;;;;;;23.21;62.37;96803.50;5059494;28;20521;-70
2021/08/22 11:00:31;;;;;;;6.80;6.20;;;;;;;23.24;62.20;96816.38;5068904;28;20420;-69
2021/08/22 11:03:19;;;;;;;8.20;6.13;;;;;;;23.52;62.99;96810.09;5058241;28;21016;-70
2021/08/22 11:05:46;;;;;;;6.00;5.40;;;;;;;23.70;61.97;96811.69;5060722;28;20432;-69
2021/08/22 11:08:23;;;;;;;7.40;6.30;;;;;;;23.77;62.38;96816.88;5070230;28;20470;-68
2021/08/22 11:11:04;;;;;;;7.17;6.43;;;;;;;23.41;63.09;96829.72;5072388;28;20774;-68
2021/08/22 11:13:37;;;;;;;6.80;5.83;;;;;;;23.49;63.03;96832.00;5055901;28;20502;-70
2021/08/22 11:16:06;;;;;;;6.53;5.50;;;;;;;23.93;63.21;96833.97;5072806;28;20421;-70
2021/08/22 11:18:33;;;;;;;7.30;6.60;;;;;;;23.87;61.81;96826.91;5052764;28;20445;-70
2021/08/22 11:20:58;;;;;;;7.83;6.13;;;;;;;23.28;63.86;96825.53;5068230;28;20449;-70
2021/08/22 11:23:25;;;;;;;7.10;6.40;;;;;;;23.23;65.79;96833.47;5070362;28;20484;-70
2021/08/22 11:26:10;;;;;;;6.63;5.87;;;;;;;22.74;67.99;96836.63;5071704;28;20190;-71
2021/08/22 11:28:36;;;;;;;4.30;3.20;;;;;;;21.78;65.84;96846.72;5058032;28;20498;-71
2021/08/22 11:31:13;;;;;;;2.63;2.43;;;;;;;21.22;64.04;96844.31;5072233;28;20979;-70
2021/08/22 11:33:39;;;;;;;2.67;2.47;;;;;;;21.19;65.20;96850.09;5049190;28;20493;-71
2021/08/22 11:36:05;;;;;;;3.73;2.37;;;;;;;20.96;64.75;96857.00;5071165;28;20920;-70
2021/08/22 11:38:31;;;;;;;2.00;1.90;;;;;;;20.95;65.14;96854.59;5071919;28;20656;-71
2021/08/22 11:41:03;;;;;;;2.30;2.10;;;;;;;21.23;64.53;96843.28;5055425;28;20206;-70
2021/08/22 11:43:32;;;;;;;2.27;2.00;;;;;;;21.02;64.38;96848.13;5071530;28;20232;-70
2021/08/22 11:45:57;;;;;;;2.33;2.13;;;;;;;20.85;64.53;96836.47;5053326;28;20889;-71